createdAt,value
2023-03-12T00:01:10.298Z,7.97
2023-03-12T00:03:36.687Z,10.97
2023-03-12T00:06:10.585Z,8.33
2023-03-12T00:08:37.564Z,7.30
2023-03-12T00:11:12.948Z,8.63
2023-03-12T00:13:39.952Z,10.13
2023-03-12T00:16:12.988Z,8.10
2023-03-12T00:18:39.488Z,7.40
2023-03-12T00:21:06.847Z,6.97
2023-03-12T00:23:33.572Z,6.67
2023-03-12T00:26:05.397Z,7.27
2023-03-12T00:28:32.598Z,7.43
2023-03-12T00:30:59.117Z,9.50
2023-03-12T00:33:27.084Z,6.60
2023-03-12T00:35:53.960Z,7.80
2023-03-12T00:38:20.906Z,8.70
2023-03-12T00:40:47.611Z,8.03
2023-03-12T00:43:14.675Z,8.23
2023-03-12T00:45:41.145Z,8.23
2023-03-12T00:48:07.568Z,8.90
2023-03-12T00:50:33.968Z,7.93
2023-03-12T00:53:00.767Z,8.27
2023-03-12T00:55:27.179Z,9.13
2023-03-12T00:57:53.667Z,6.20
2023-03-12T01:00:20.435Z,7.47
2023-03-12T01:02:47.161Z,9.37
2023-03-12T01:05:14.463Z,7.93
2023-03-12T01:07:41.064Z,7.20
2023-03-12T01:10:09.065Z,7.83
2023-03-12T01:12:35.557Z,8.43
2023-03-12T01:15:02.395Z,7.20
2023-03-12T01:17:28.763Z,6.70
2023-03-12T01:19:55.155Z,6.47
2023-03-12T01:22:21.585Z,6.70
2023-03-12T01:24:48.257Z,6.97
2023-03-12T01:27:14.703Z,7.20
2023-03-12T01:29:41.201Z,6.17
2023-03-12T01:32:07.724Z,5.37
2023-03-12T01:34:35.463Z,6.27
2023-03-12T01:37:02.366Z,7.50
2023-03-12T01:39:28.833Z,7.67
2023-03-12T01:41:55.454Z,10.10
2023-03-12T01:44:22.198Z,8.87
2023-03-12T01:46:48.656Z,7.00
2023-03-12T01:49:20.256Z,8.90
2023-03-12T01:51:49.406Z,6.00
2023-03-12T01:54:44.304Z,9.20
2023-03-12T01:57:18.843Z,8.03
2023-03-12T01:59:48.864Z,9.33
2023-03-12T02:02:16.590Z,7.07
2023-03-12T02:04:45.137Z,9.03
2023-03-12T02:07:14.097Z,8.33
2023-03-12T02:09:45.451Z,8.83
2023-03-12T02:12:12.641Z,9.93
2023-03-12T02:14:39.503Z,9.77
2023-03-12T02:17:06.131Z,11.30
2023-03-12T02:20:00.005Z,12.83
2023-03-12T02:22:26.696Z,10.77
2023-03-12T02:24:56.165Z,11.83
2023-03-12T02:27:23.564Z,11.93
2023-03-12T02:29:50.825Z,9.67
2023-03-12T02:32:23.119Z,11.33
2023-03-12T02:34:50.742Z,9.90
2023-03-12T02:37:18.533Z,11.53
2023-03-12T02:39:51.222Z,11.03
2023-03-12T02:42:17.939Z,11.43
2023-03-12T02:44:44.731Z,11.03
2023-03-12T02:47:11.465Z,12.03
2023-03-12T02:49:37.869Z,12.40
2023-03-12T02:52:04.885Z,10.93
2023-03-12T02:54:31.772Z,10.57
2023-03-12T02:56:58.888Z,13.33
2023-03-12T02:59:26.734Z,13.47
2023-03-12T03:01:56.339Z,11.07
2023-03-12T03:04:25.197Z,11.70
2023-03-12T03:06:52.338Z,11.60
2023-03-12T03:09:22.211Z,9.80
2023-03-12T03:11:50.203Z,11.70
2023-03-12T03:14:16.733Z,10.17
2023-03-12T03:16:43.142Z,8.80
2023-03-12T03:19:10.324Z,8.97
2023-03-12T03:21:37.123Z,8.53
2023-03-12T03:24:03.878Z,9.80
2023-03-12T03:26:30.301Z,9.63
2023-03-12T03:28:56.725Z,10.67
2023-03-12T03:31:23.613Z,9.77
2023-03-12T03:33:50.193Z,10.30
2023-03-12T03:36:17.401Z,9.10
2023-03-12T03:38:49.087Z,9.43
2023-03-12T03:41:17.905Z,8.67
2023-03-12T03:43:44.765Z,8.50
2023-03-12T03:46:13.137Z,8.87
2023-03-12T03:48:40.080Z,7.63
2023-03-12T03:51:10.207Z,9.33
2023-03-12T03:53:37.032Z,10.77
2023-03-12T03:56:11.576Z,9.30
2023-03-12T03:58:38.280Z,7.50
2023-03-12T04:01:06.114Z,6.80
2023-03-12T04:03:33.225Z,8.13
2023-03-12T04:06:01.881Z,8.27
2023-03-12T04:08:28.944Z,6.93
2023-03-12T04:10:56.028Z,7.07
2023-03-12T04:13:22.433Z,9.17
2023-03-12T04:15:51.482Z,7.73
2023-03-12T04:18:18.384Z,6.73
2023-03-12T04:20:46.119Z,7.87
2023-03-12T04:23:12.504Z,9.17
2023-03-12T04:25:39.520Z,8.07
2023-03-12T04:28:06.201Z,8.00
2023-03-12T04:30:32.712Z,6.57
2023-03-12T04:32:59.349Z,8.00
2023-03-12T04:35:25.902Z,7.93
2023-03-12T04:37:52.382Z,8.37
2023-03-12T04:40:19.947Z,8.30
2023-03-12T04:42:46.810Z,8.20
2023-03-12T04:45:13.661Z,9.43
2023-03-12T04:47:40.453Z,7.73
2023-03-12T04:50:08.227Z,8.87
2023-03-12T04:52:34.686Z,7.53
2023-03-12T04:55:02.567Z,8.70
2023-03-12T04:57:28.959Z,8.63
2023-03-12T04:59:55.363Z,7.90
2023-03-12T05:02:22.337Z,6.67
2023-03-12T05:04:48.800Z,8.90
2023-03-12T05:07:15.192Z,9.07
2023-03-12T05:09:41.617Z,9.63
2023-03-12T05:12:08.761Z,8.13
2023-03-12T05:14:35.200Z,9.07
2023-03-12T05:17:01.637Z,10.17
2023-03-12T05:19:28.045Z,8.97
2023-03-12T05:21:54.818Z,13.03
2023-03-12T05:24:22.467Z,10.60
2023-03-12T05:26:49.049Z,8.63
2023-03-12T05:29:15.485Z,12.33
2023-03-12T05:31:42.139Z,8.57
2023-03-12T05:34:13.991Z,8.60
2023-03-12T05:36:40.614Z,9.83
2023-03-12T05:39:07.067Z,9.27
2023-03-12T05:41:33.569Z,9.30
2023-03-12T05:44:00.106Z,8.10
2023-03-12T05:46:27.510Z,7.67
2023-03-12T05:48:54.162Z,7.17
2023-03-12T05:51:21.222Z,9.87
2023-03-12T05:53:48.012Z,8.57
2023-03-12T05:56:16.830Z,7.13
2023-03-12T05:58:44.611Z,7.27
2023-03-12T06:01:14.528Z,6.37
2023-03-12T06:03:42.839Z,6.33
2023-03-12T06:06:10.201Z,8.17
2023-03-12T06:08:36.698Z,8.03
2023-03-12T06:11:03.560Z,6.80
2023-03-12T06:13:30.791Z,5.07
2023-03-12T06:16:05.281Z,6.03
2023-03-12T06:18:32.881Z,6.83
2023-03-12T06:21:13.811Z,6.67
2023-03-12T06:23:41.031Z,7.73
2023-03-12T06:26:08.277Z,7.17
2023-03-12T06:28:35.568Z,6.20
2023-03-12T06:31:02.367Z,6.93
2023-03-12T06:33:29.712Z,6.73
2023-03-12T06:36:00.837Z,7.53
2023-03-12T06:38:27.588Z,7.77
2023-03-12T06:40:58.656Z,10.80
2023-03-12T06:43:26.729Z,8.43
2023-03-12T06:45:55.757Z,8.23
2023-03-12T06:48:23.295Z,7.93
2023-03-12T06:50:50.074Z,10.23
2023-03-12T06:53:16.488Z,7.40
2023-03-12T06:55:44.054Z,6.63
2023-03-12T06:58:10.697Z,7.57
2023-03-12T07:00:37.089Z,7.60
2023-03-12T07:03:03.596Z,8.37
2023-03-12T07:05:30.440Z,8.70
2023-03-12T07:07:57.215Z,9.73
2023-03-12T07:10:23.770Z,7.67
2023-03-12T07:12:50.611Z,7.60
2023-03-12T07:15:17.025Z,8.17
2023-03-12T07:17:43.414Z,12.17
2023-03-12T07:20:10.717Z,7.57
2023-03-12T07:22:37.111Z,7.97
2023-03-12T07:25:04.700Z,11.23
2023-03-12T07:27:31.114Z,8.67
2023-03-12T07:29:57.513Z,8.77
2023-03-12T07:32:23.963Z,8.70
2023-03-12T07:34:50.446Z,8.13
2023-03-12T07:37:16.834Z,10.10
2023-03-12T07:39:44.639Z,8.97
2023-03-12T07:42:12.837Z,9.33
2023-03-12T07:44:39.379Z,8.93
2023-03-12T07:47:22.230Z,10.17
2023-03-12T07:49:49.856Z,9.23
2023-03-12T07:52:18.001Z,11.30
2023-03-12T07:54:44.557Z,11.63
2023-03-12T07:57:11.283Z,12.57
2023-03-12T07:59:37.739Z,7.90
2023-03-12T08:02:04.224Z,10.70
2023-03-12T08:04:31.156Z,11.83
2023-03-12T08:06:57.660Z,10.60
2023-03-12T08:09:24.572Z,9.70
2023-03-12T08:11:51.184Z,11.43
2023-03-12T08:14:18.025Z,10.43
2023-03-12T08:16:44.862Z,9.97
2023-03-12T08:19:11.673Z,9.40
2023-03-12T08:21:38.078Z,11.00
2023-03-12T08:24:04.771Z,8.40
2023-03-12T08:26:31.252Z,8.70
2023-03-12T08:29:00.138Z,11.33
2023-03-12T08:31:28.867Z,10.03
2023-03-12T08:33:55.318Z,11.27
2023-03-12T08:36:22.555Z,10.80
2023-03-12T08:38:49.099Z,9.43
2023-03-12T08:41:15.537Z,10.73
2023-03-12T08:43:42.009Z,10.80
2023-03-12T08:46:11.102Z,9.93
2023-03-12T08:48:39.095Z,9.93
2023-03-12T08:51:07.467Z,14.10
2023-03-12T08:53:36.286Z,10.63
2023-03-12T08:56:04.470Z,8.83
2023-03-12T08:58:31.390Z,11.60
2023-03-12T09:00:58.148Z,9.07
2023-03-12T09:03:25.840Z,10.77
2023-03-12T09:06:03.390Z,8.77
2023-03-12T09:08:29.754Z,8.67
2023-03-12T09:10:56.180Z,8.17
2023-03-12T09:13:22.635Z,7.83
2023-03-12T09:15:49.087Z,6.47
2023-03-12T09:18:16.262Z,7.90
2023-03-12T09:20:43.560Z,7.47
2023-03-12T09:23:10.102Z,9.00
2023-03-12T09:25:37.300Z,6.90
2023-03-12T09:28:03.733Z,7.57
2023-03-12T09:30:32.035Z,7.23
2023-03-12T09:32:58.686Z,6.90
2023-03-12T09:35:25.183Z,7.80
2023-03-12T09:37:51.594Z,6.53
2023-03-12T09:40:22.725Z,7.50
2023-03-12T09:42:58.959Z,7.17
2023-03-12T09:45:31.931Z,6.40
2023-03-12T09:48:05.080Z,7.30
2023-03-12T09:50:43.937Z,7.33
2023-03-12T09:53:23.311Z,7.23
2023-03-12T09:55:52.517Z,6.93
2023-03-12T09:58:33.879Z,6.37
2023-03-12T10:01:12.862Z,6.33
2023-03-12T10:03:49.230Z,5.80
2023-03-12T10:06:22.105Z,5.37
2023-03-12T10:09:00.322Z,5.90
2023-03-12T10:11:37.506Z,4.20
2023-03-12T10:14:35.057Z,6.90
2023-03-12T10:17:38.148Z,5.43
2023-03-12T10:20:16.604Z,6.60
2023-03-12T10:22:49.920Z,5.53
2023-03-12T10:25:31.688Z,5.57
2023-03-12T10:28:02.545Z,9.07
2023-03-12T10:30:31.865Z,7.53
2023-03-12T10:33:06.724Z,6.30
2023-03-12T10:35:33.167Z,8.97
2023-03-12T10:38:05.631Z,7.03
2023-03-12T10:40:35.235Z,6.43
2023-03-12T10:43:03.602Z,7.23
2023-03-12T10:45:54.979Z,8.30
2023-03-12T10:48:24.658Z,6.13
2023-03-12T10:51:11.777Z,5.90
2023-03-12T10:53:44.711Z,5.60
2023-03-12T10:56:17.150Z,7.57
2023-03-12T10:58:49.682Z,7.60
2023-03-12T11:01:25.409Z,6.97
2023-03-12T11:03:53.968Z,7.13
2023-03-12T11:06:29.840Z,7.30
2023-03-12T11:09:17.689Z,7.43
2023-03-12T11:11:47.688Z,7.00
2023-03-12T11:14:19.249Z,7.60
2023-03-12T11:16:46.045Z,8.43
2023-03-12T11:19:14.859Z,7.30
2023-03-12T11:21:55.726Z,6.73
2023-03-12T11:24:22.170Z,7.93
2023-03-12T11:26:51.669Z,8.57
2023-03-12T11:29:25.920Z,13.07
2023-03-12T11:32:14.613Z,11.10
2023-03-12T11:34:42.121Z,12.17
2023-03-12T11:37:18.930Z,12.20
2023-03-12T11:40:11.575Z,10.70
2023-03-12T11:42:44.170Z,11.60
2023-03-12T11:45:32.459Z,12.87
2023-03-12T11:48:28.751Z,9.70
2023-03-12T11:51:08.414Z,10.50
2023-03-12T11:53:43.826Z,8.87
2023-03-12T11:56:57.936Z,9.20
2023-03-12T12:00:00.668Z,8.70
2023-03-12T12:02:30.187Z,11.20
2023-03-12T12:05:07.149Z,10.83
2023-03-12T12:07:42.771Z,12.43
2023-03-12T12:10:17.026Z,11.23
2023-03-12T12:13:25.047Z,11.20
2023-03-12T12:16:02.204Z,9.63
2023-03-12T12:18:50.357Z,10.03
2023-03-12T12:21:22.748Z,11.30
2023-03-12T12:24:18.537Z,10.30
2023-03-12T12:26:56.403Z,12.03
2023-03-12T12:29:22.736Z,10.53
2023-03-12T12:31:59.529Z,11.30
2023-03-12T12:34:45.219Z,9.00
2023-03-12T12:37:22.872Z,10.13
2023-03-12T12:40:12.630Z,12.07
2023-03-12T12:42:58.590Z,11.27
2023-03-12T12:45:30.745Z,11.20
2023-03-12T12:48:02.901Z,13.50
2023-03-12T12:50:34.921Z,11.63
2023-03-12T12:53:23.911Z,10.03
2023-03-12T12:56:22.835Z,10.87
2023-03-12T12:59:14.620Z,12.93
2023-03-12T13:01:41.804Z,10.60
2023-03-12T13:04:18.282Z,11.03
2023-03-12T13:07:13.005Z,10.23
2023-03-12T13:09:45.979Z,10.33
2023-03-12T13:12:14.014Z,12.67
2023-03-12T13:14:45.262Z,13.43
2023-03-12T13:17:35.189Z,13.50
2023-03-12T13:20:06.113Z,14.93
2023-03-12T13:22:49.740Z,11.73
2023-03-12T13:25:31.689Z,12.67
2023-03-12T13:28:21.964Z,12.40
2023-03-12T13:30:50.588Z,13.20
2023-03-12T13:33:21.610Z,13.57
2023-03-12T13:36:04.327Z,13.30
2023-03-12T13:38:51.798Z,14.67
2023-03-12T13:41:32.005Z,12.30
2023-03-12T13:43:58.636Z,13.90
2023-03-12T13:46:35.114Z,13.80
2023-03-12T13:49:06.248Z,13.83
2023-03-12T13:51:32.881Z,12.40
2023-03-12T13:54:01.659Z,15.97
2023-03-12T13:56:31.074Z,13.73
2023-03-12T13:59:02.451Z,17.03
2023-03-12T14:01:42.847Z,16.93
2023-03-12T14:04:18.604Z,15.60
2023-03-12T14:07:03.727Z,13.97
2023-03-12T14:09:59.569Z,15.17
2023-03-12T14:12:39.838Z,17.93
2023-03-12T14:15:09.534Z,16.30
2023-03-12T14:17:37.868Z,15.83
2023-03-12T14:20:07.319Z,17.20
2023-03-12T14:22:37.487Z,15.10
2023-03-12T14:25:14.571Z,18.10
2023-03-12T14:27:45.114Z,14.23
2023-03-12T14:30:39.572Z,16.10
2023-03-12T14:33:07.440Z,14.57
2023-03-12T14:35:41.057Z,17.47
2023-03-12T14:38:16.090Z,14.40
2023-03-12T14:41:03.776Z,18.97
2023-03-12T14:43:32.946Z,16.70
2023-03-12T14:46:02.066Z,19.23
2023-03-12T14:48:31.792Z,17.17
2023-03-12T14:50:59.576Z,16.73
2023-03-12T14:53:35.089Z,17.63
2023-03-12T14:56:14.940Z,16.00
2023-03-12T14:58:49.553Z,17.63
2023-03-12T15:01:21.792Z,18.37
2023-03-12T15:03:52.952Z,21.03
2023-03-12T15:06:29.793Z,21.10
2023-03-12T15:08:57.383Z,20.63
2023-03-12T15:11:26.696Z,20.43
2023-03-12T15:13:56.531Z,19.53
2023-03-12T15:16:24.043Z,20.23
2023-03-12T15:18:51.286Z,20.20
2023-03-12T15:21:18.418Z,19.70
2023-03-12T15:23:47.326Z,21.23
2023-03-12T15:26:16.893Z,24.43
2023-03-12T15:28:43.912Z,25.50
2023-03-12T15:31:16.853Z,22.90
2023-03-12T15:33:44.330Z,21.80
2023-03-12T15:36:19.899Z,19.20
2023-03-12T15:38:51.914Z,19.73
2023-03-12T15:41:26.304Z,20.33
2023-03-12T15:43:55.863Z,20.83
2023-03-12T15:46:24.564Z,21.30
2023-03-12T15:48:54.984Z,20.90
2023-03-12T15:51:34.502Z,20.07
2023-03-12T15:54:25.142Z,21.97
2023-03-12T15:56:51.797Z,20.57
2023-03-12T15:59:25.815Z,21.30
2023-03-12T16:01:54.842Z,23.77
2023-03-12T16:04:22.677Z,22.77
2023-03-12T16:06:50.359Z,26.03
2023-03-12T16:09:26.245Z,22.33
2023-03-12T16:11:55.199Z,23.53
2023-03-12T16:14:30.257Z,19.97
2023-03-12T16:16:56.959Z,22.73
2023-03-12T16:19:24.121Z,22.60
2023-03-12T16:21:50.799Z,24.07
2023-03-12T16:24:17.598Z,22.37
2023-03-12T16:27:05.290Z,26.23
2023-03-12T16:29:34.539Z,23.67
2023-03-12T16:32:01.958Z,25.40
2023-03-12T16:34:28.777Z,26.13
2023-03-12T16:36:55.222Z,22.40
2023-03-12T16:39:21.906Z,21.07
2023-03-12T16:41:48.476Z,24.60
2023-03-12T16:44:19.669Z,23.93
2023-03-12T16:46:46.451Z,20.43
2023-03-12T16:49:19.605Z,24.20
2023-03-12T16:51:46.390Z,25.10
2023-03-12T16:54:12.902Z,26.57
2023-03-12T16:56:45.177Z,26.57
2023-03-12T16:59:27.338Z,28.73
2023-03-12T17:01:54.328Z,25.43
2023-03-12T17:04:21.011Z,25.00
2023-03-12T17:06:47.507Z,24.47
2023-03-12T17:09:13.912Z,26.57
2023-03-12T17:11:40.923Z,26.63
2023-03-12T17:14:21.923Z,25.97
2023-03-12T17:16:48.650Z,28.40
2023-03-12T17:19:15.260Z,25.63
2023-03-12T17:21:43.266Z,28.10
2023-03-12T17:24:14.018Z,25.67
2023-03-12T17:26:41.480Z,28.40
2023-03-12T17:29:08.385Z,23.17
2023-03-12T17:31:37.615Z,30.37
2023-03-12T17:34:04.628Z,26.33
2023-03-12T17:36:31.162Z,28.97
2023-03-12T17:38:57.655Z,28.20
2023-03-12T17:41:26.964Z,24.33
2023-03-12T17:43:55.232Z,26.97
2023-03-12T17:46:22.177Z,26.93
2023-03-12T17:48:48.690Z,28.60
2023-03-12T17:51:15.102Z,23.17
2023-03-12T17:53:41.989Z,22.70
2023-03-12T17:56:09.133Z,26.57
2023-03-12T17:58:35.551Z,27.10
2023-03-12T18:01:02.010Z,32.77
2023-03-12T18:03:28.711Z,24.23
2023-03-12T18:05:55.240Z,27.30
2023-03-12T18:08:21.940Z,26.30
2023-03-12T18:10:48.909Z,28.53
2023-03-12T18:13:15.907Z,27.13
2023-03-12T18:15:42.654Z,29.73
2023-03-12T18:18:09.182Z,29.50
2023-03-12T18:20:39.560Z,29.27
2023-03-12T18:23:06.906Z,27.37
2023-03-12T18:25:34.751Z,30.97
2023-03-12T18:28:01.253Z,28.70
2023-03-12T18:30:28.346Z,27.50
2023-03-12T18:32:55.058Z,30.13
2023-03-12T18:35:22.691Z,32.63
2023-03-12T18:37:52.561Z,31.27
2023-03-12T18:40:19.102Z,27.27
2023-03-12T18:42:45.931Z,29.97
2023-03-12T18:45:12.770Z,29.10
2023-03-12T18:47:39.657Z,31.63
2023-03-12T18:50:08.042Z,29.77
2023-03-12T18:52:35.474Z,27.57
2023-03-12T18:55:02.187Z,32.37
2023-03-12T18:57:28.756Z,30.13
2023-03-12T18:59:55.946Z,31.97
2023-03-12T19:02:23.717Z,34.60
2023-03-12T19:04:56.171Z,28.70
2023-03-12T19:07:22.849Z,36.07
2023-03-12T19:09:49.288Z,36.57
2023-03-12T19:12:15.708Z,33.00
2023-03-12T19:14:42.137Z,33.43
2023-03-12T19:17:08.583Z,35.33
2023-03-12T19:19:35.009Z,33.93
2023-03-12T19:22:01.393Z,33.47
2023-03-12T19:24:27.869Z,32.30
2023-03-12T19:26:54.283Z,35.77
2023-03-12T19:29:20.694Z,37.13
2023-03-12T19:31:47.129Z,30.70
2023-03-12T19:34:13.540Z,33.00
2023-03-12T19:36:40.040Z,35.90
2023-03-12T19:39:15.316Z,37.63
2023-03-12T19:41:47.279Z,36.53
2023-03-12T19:44:14.004Z,39.97
2023-03-12T19:46:42.920Z,32.90
2023-03-12T19:49:09.623Z,37.87
2023-03-12T19:51:36.307Z,31.77
2023-03-12T19:54:02.751Z,39.97
2023-03-12T19:56:29.316Z,39.70
2023-03-12T19:58:55.695Z,37.07
2023-03-12T20:01:22.969Z,37.10
2023-03-12T20:03:49.419Z,38.97
2023-03-12T20:06:15.800Z,35.20
2023-03-12T20:08:42.261Z,36.03
2023-03-12T20:11:10.479Z,37.47
2023-03-12T20:13:39.856Z,37.00
2023-03-12T20:16:07.605Z,37.43
2023-03-12T20:18:34.125Z,36.43
2023-03-12T20:21:00.538Z,33.97
2023-03-12T20:23:26.963Z,38.33
2023-03-12T20:25:53.351Z,42.00
2023-03-12T20:28:19.733Z,40.37
2023-03-12T20:30:46.204Z,38.63
2023-03-12T20:33:12.784Z,37.77
2023-03-12T20:35:39.598Z,39.50
2023-03-12T20:38:06.360Z,40.47
2023-03-12T20:40:32.758Z,48.17
2023-03-12T20:42:59.358Z,35.43
2023-03-12T20:45:25.755Z,45.20
2023-03-12T20:47:53.429Z,45.33
2023-03-12T20:50:20.744Z,42.50
2023-03-12T20:52:47.188Z,47.13
2023-03-12T20:55:13.587Z,44.53
2023-03-12T20:57:39.981Z,43.60
2023-03-12T21:00:07.121Z,41.30
2023-03-12T21:02:34.140Z,42.27
2023-03-12T21:05:00.592Z,46.43
2023-03-12T21:07:27.067Z,41.20
2023-03-12T21:09:53.721Z,45.70
2023-03-12T21:12:20.230Z,40.63
2023-03-12T21:14:46.620Z,42.63
2023-03-12T21:17:13.761Z,43.10
2023-03-12T21:19:41.838Z,47.63
2023-03-12T21:22:09.186Z,40.27
2023-03-12T21:24:35.799Z,41.97
2023-03-12T21:27:02.468Z,33.63
2023-03-12T21:29:28.889Z,44.97
2023-03-12T21:31:55.361Z,44.30
2023-03-12T21:34:22.755Z,46.23
2023-03-12T21:36:49.206Z,45.97
2023-03-12T21:39:16.971Z,46.00
2023-03-12T21:41:43.382Z,44.93
2023-03-12T21:44:09.767Z,40.00
2023-03-12T21:46:36.685Z,43.37
2023-03-12T21:49:03.358Z,39.40
2023-03-12T21:51:29.778Z,42.73
2023-03-12T21:53:57.289Z,37.80
2023-03-12T21:56:27.991Z,45.10
2023-03-12T21:58:58.189Z,39.33
2023-03-12T22:01:25.273Z,43.20
2023-03-12T22:03:51.870Z,40.57
2023-03-12T22:06:18.575Z,39.40
2023-03-12T22:08:48.024Z,38.03
2023-03-12T22:11:15.976Z,36.30
2023-03-12T22:13:42.631Z,33.47
2023-03-12T22:16:11.193Z,33.57
2023-03-12T22:18:43.507Z,37.40
2023-03-12T22:21:16.504Z,35.53
2023-03-12T22:23:42.970Z,34.77
2023-03-12T22:26:09.665Z,36.73
2023-03-12T22:28:36.182Z,36.27
2023-03-12T22:31:05.486Z,36.73
2023-03-12T22:33:32.354Z,34.93
2023-03-12T22:35:58.760Z,31.83
2023-03-12T22:38:25.238Z,34.37
2023-03-12T22:40:53.172Z,35.37
2023-03-12T22:43:21.459Z,33.90
2023-03-12T22:45:47.854Z,33.80
2023-03-12T22:48:14.227Z,33.37
2023-03-12T22:50:40.637Z,35.23
2023-03-12T22:53:07.233Z,28.43
2023-03-12T22:55:33.943Z,32.30
2023-03-12T22:58:00.389Z,32.90
2023-03-12T23:00:26.796Z,33.87
2023-03-12T23:02:53.607Z,34.87
2023-03-12T23:05:20.138Z,34.97
2023-03-12T23:07:47.009Z,31.33
2023-03-12T23:10:13.432Z,33.67
2023-03-12T23:12:40.142Z,34.70
2023-03-12T23:15:06.999Z,38.37
2023-03-12T23:17:33.477Z,30.43
2023-03-12T23:19:59.885Z,34.63
2023-03-12T23:22:26.871Z,32.67
2023-03-12T23:24:53.265Z,32.27
2023-03-12T23:27:19.708Z,34.97
2023-03-12T23:29:46.099Z,32.60
2023-03-12T23:32:12.855Z,33.40
2023-03-12T23:34:39.244Z,35.13
2023-03-12T23:37:06.164Z,36.87
2023-03-12T23:39:35.375Z,30.83
2023-03-12T23:42:06.432Z,35.30
2023-03-12T23:44:33.026Z,29.07
2023-03-12T23:46:59.481Z,28.60
2023-03-12T23:49:25.924Z,28.43
2023-03-12T23:51:52.337Z,32.00
2023-03-12T23:54:18.705Z,31.80
2023-03-12T23:56:45.432Z,33.37
2023-03-12T23:59:11.812Z,32.40
